Terminal Aerodrome Forecast
Issued by NWS

Home | Current Version | Previous Version | Graphics & Text | Print | Product List | Glossary On
Versions: 1 2 3 4 5 6 7 8 9 10 11 12 13 14 15 16 17 18 19 20 21 22 23 24 25 26 27 28
000
FTUS43 KLOT 190916 AAA
TAFGYY
TAF AMD
KGYY 190916Z 1909/2006 19005KT 3SM BR FEW005
     FM191100 18004KT 2SM BR BKN004
     FM191600 16008KT 6SM BR SCT007 BKN100
     FM192000 11008KT P6SM SCT035 OVC060
     FM200100 09006KT 3SM -RA SCT010 OVC025
     FM200300 08007KT 2SM -RA BKN007 OVC015=

USA.gov is the U.S. government's official web portal to all federal, state and local government web resources and services.